Time;durP1;ratioP1;P1;durP2;ratioP2;P2;SDS_P1;SDS_P2;PMS_P1;PMS_P2;Temp;Humidity;BMP_temperature;BMP_pressure;BME280_temperature;BME280_humidity;BME280_pressure;Samples;Min_cycle;Max_cycle;Signal;HPM_P1;HPM_P2
2023/12/01 00:02:02;;;;;;;;;;;;;;;1.46;100.00;94771.56;5066506;28;19960;-66
2023/12/01 00:04:27;;;;;;;;;;;;;;;1.46;100.00;94785.28;5066488;28;19940;-65
2023/12/01 00:06:53;;;;;;;;;;;;;;;1.47;100.00;94788.66;5067292;28;19945;-77
2023/12/01 00:09:19;;;;;;;;;;;;;;;1.48;100.00;94791.03;5066185;28;19947;-80
2023/12/01 00:11:45;;;;;;;;;;;;;;;1.50;100.00;94796.00;5067084;28;19953;-81
2023/12/01 00:14:11;;;;;;;;;;;;;;;1.51;100.00;94782.91;5065850;28;19950;-78
2023/12/01 00:16:37;;;;;;;;;;;;;;;1.53;100.00;94780.09;5066949;28;19937;-79
2023/12/01 00:19:02;;;;;;;;;;;;;;;1.55;100.00;94784.06;5065861;28;19951;-79
2023/12/01 00:21:28;;;;;;;;;;;;;;;1.55;100.00;94771.13;5065880;28;19939;-78
2023/12/01 00:23:54;;;;;;;;;;;;;;;1.58;100.00;94768.16;5065935;28;19944;-68
2023/12/01 00:26:20;;;;;;;;;;;;;;;1.58;100.00;94775.91;5065687;28;19940;-78
2023/12/01 00:28:46;;;;;;;;;;;;;;;1.60;100.00;94775.72;5066684;28;19945;-78
2023/12/01 00:31:11;;;;;;;;;;;;;;;1.60;100.00;94784.25;5066490;28;19940;-76
2023/12/01 00:33:37;;;;;;;;;;;;;;;1.62;100.00;94784.06;5066011;28;20048;-79
2023/12/01 00:36:03;;;;;;;;;;;;;;;1.62;100.00;94779.69;5065921;28;19959;-79
2023/12/01 00:38:29;;;;;;;;;;;;;;;1.63;100.00;94770.94;5048212;28;19962;-76
2023/12/01 00:40:55;;;;;;;;;;;;;;;1.65;100.00;94778.47;5066284;28;19939;-77
2023/12/01 00:43:21;;;;;;;;;;;;;;;1.67;100.00;94784.25;5065773;28;19940;-71
2023/12/01 00:45:47;;;;;;;;;;;;;;;1.68;100.00;94780.66;5065588;28;19937;-70
2023/12/01 00:48:12;;;;;;;;;;;;;;;1.69;100.00;94765.97;5066246;28;20036;-70
2023/12/01 00:50:39;;;;;;;;;;;;;;;1.68;100.00;94782.44;5065526;28;19942;-70
2023/12/01 00:53:05;;;;;;;;;;;;;;;1.68;100.00;94782.44;5065174;28;19953;-69
2023/12/01 00:55:31;;;;;;;;;;;;;;;1.67;100.00;94788.63;5065497;28;19960;-70
2023/12/01 00:57:57;;;;;;;;;;;;;;;1.65;100.00;94788.03;5065583;28;20020;-71
2023/12/01 01:00:23;;;;;;;;;;;;;;;1.62;100.00;94794.41;5065352;28;19951;-76
2023/12/01 01:02:52;;;;;;;;;;;;;;;1.59;100.00;94790.41;5065310;28;19953;-69
2023/12/01 01:05:18;;;;;;;;;;;;;;;1.59;100.00;94795.56;5065860;28;19966;-70
2023/12/01 01:07:45;;;;;;;;;;;;;;;1.57;100.00;94796.78;5066052;28;19945;-70
2023/12/01 01:10:10;;;;;;;;;;;;;;;1.55;100.00;94796.19;5064883;28;19944;-68
2023/12/01 01:12:36;;;;;;;;;;;;;;;1.51;100.00;94793.22;5066101;28;20205;-70
2023/12/01 01:15:03;;;;;;;;;;;;;;;1.48;100.00;94787.66;5065723;28;19954;-70
2023/12/01 01:17:31;;;;;;;;;;;;;;;1.41;100.00;94770.41;5065172;28;19937;-79
2023/12/01 01:19:58;;;;;;;;;;;;;;;1.39;100.00;94769.00;5065135;28;19947;-68
2023/12/01 01:22:24;;;;;;;;;;;;;;;1.41;100.00;94769.59;5065817;28;19964;-70
2023/12/01 01:24:51;;;;;;;;;;;;;;;1.42;100.00;94778.94;5065006;28;19942;-71
2023/12/01 01:27:17;;;;;;;;;;;;;;;1.44;100.00;94789.06;5064920;28;19939;-70
2023/12/01 01:29:45;;;;;;;;;;;;;;;1.44;100.00;94768.41;5064916;28;19942;-71
2023/12/01 01:32:11;;;;;;;;;;;;;;;1.45;100.00;94781.13;5064489;28;20237;-71
2023/12/01 01:34:37;;;;;;;;;;;;;;;1.47;100.00;94786.06;5064918;28;19959;-69
2023/12/01 01:37:03;;;;;;;;;;;;;;;1.49;100.00;94786.66;5065439;28;19942;-69
2023/12/01 01:39:29;;;;;;;;;;;;;;;1.50;100.00;94801.97;5064758;28;19977;-80
2023/12/01 01:41:56;;;;;;;;;;;;;;;1.50;100.00;94808.94;5047298;28;19934;-80
2023/12/01 01:44:22;;;;;;;;;;;;;;;1.47;100.00;94814.47;5064249;28;19957;-77
2023/12/01 01:46:50;;;;;;;;;;;;;;;1.47;100.00;94822.22;5064401;28;19971;-76
2023/12/01 01:49:21;;;;;;;;;;;;;;;1.42;100.00;94835.75;5064539;28;19941;-76
2023/12/01 01:51:49;;;;;;;;;;;;;;;1.37;100.00;94844.09;5065128;28;19944;-76
2023/12/01 01:54:16;;;;;;;;;;;;;;;1.35;100.00;94845.31;5065256;28;19935;-65
2023/12/01 01:56:42;;;;;;;;;;;;;;;1.35;100.00;94847.88;5064687;28;19968;-69
2023/12/01 01:59:08;;;;;;;;;;;;;;;1.34;100.00;94831.56;5064297;28;19951;-70
2023/12/01 02:01:39;;;;;;;;;;;;;;;1.31;100.00;94826.81;5064298;28;19943;-70
2023/12/01 02:04:07;;;;;;;;;;;;;;;1.29;100.00;94826.22;5064323;28;19938;-70
2023/12/01 02:06:33;;;;;;;;;;;;;;;1.27;100.00;94830.78;5064328;28;20222;-70
2023/12/01 02:09:00;;;;;;;;;;;;;;;1.26;100.00;94831.00;5063547;28;19944;-70
2023/12/01 02:11:26;;;;;;;;;;;;;;;1.25;100.00;94835.38;5064155;28;20106;-69
2023/12/01 02:13:53;;;;;;;;;;;;;;;1.26;100.00;94834.38;5064704;28;19937;-67
2023/12/01 02:16:19;;;;;;;;;;;;;;;1.25;100.00;94830.19;5064086;28;20041;-69
2023/12/01 02:18:44;;;;;;;;;;;;;;;1.26;100.00;94823.25;5063144;28;19945;-69
2023/12/01 02:21:10;;;;;;;;;;;;;;;1.26;100.00;94824.06;5064076;28;19941;-70
2023/12/01 02:23:36;;;;;;;;;;;;;;;1.24;100.00;94826.03;5063649;28;19936;-69
2023/12/01 02:26:02;;;;;;;;;;;;;;;1.25;100.00;94816.50;5063626;28;19933;-69
2023/12/01 02:28:28;;;;;;;;;;;;;;;1.22;100.00;94830.63;5063966;28;19938;-69
2023/12/01 02:30:55;;;;;;;;;;;;;;;1.23;100.00;94836.56;5064177;28;19936;-67
2023/12/01 02:33:21;;;;;;;;;;;;;;;1.21;100.00;94829.78;5063522;28;19935;-68
2023/12/01 02:35:51;;;;;;;;;;;;;;;1.21;100.00;94834.97;5063818;28;19957;-64
2023/12/01 02:38:17;;;;;;;;;;;;;;;1.20;100.00;94841.13;5063746;28;19947;-66
2023/12/01 02:40:43;;;;;;;;;;;;;;;1.19;100.00;94836.94;5064092;28;19951;-64
2023/12/01 02:43:12;;;;;;;;;;;;;;;1.19;100.00;94838.75;5063700;28;19939;-66
2023/12/01 02:45:38;;;;;;;;;;;;;;;1.17;100.00;94832.97;5063283;28;19943;-65
2023/12/01 02:48:04;;;;;;;;;;;;;;;1.16;100.00;94832.19;5063737;28;19942;-65
2023/12/01 02:50:31;;;;;;;;;;;;;;;1.15;100.00;94829.81;5063431;28;19949;-65
2023/12/01 02:52:57;;;;;;;;;;;;;;;1.16;100.00;94823.66;5063169;28;19940;-66
2023/12/01 02:55:23;;;;;;;;;;;;;;;1.15;100.00;94833.16;5063580;28;20213;-65
2023/12/01 02:57:49;;;;;;;;;;;;;;;1.15;100.00;94827.22;5063849;28;19944;-66
2023/12/01 03:00:15;;;;;;;;;;;;;;;1.15;100.00;94824.63;5063478;28;19938;-66
2023/12/01 03:02:41;;;;;;;;;;;;;;;1.14;100.00;94818.69;5063301;28;20079;-66
2023/12/01 03:05:08;;;;;;;;;;;;;;;1.14;100.00;94816.09;5063402;28;19935;-66
2023/12/01 03:07:35;;;;;;;;;;;;;;;1.14;100.00;94828.22;5063441;28;19943;-68
2023/12/01 03:10:01;;;;;;;;;;;;;;;1.15;100.00;94829.81;5063444;28;19936;-68
2023/12/01 03:12:27;;;;;;;;;;;;;;;1.14;100.00;94826.44;5063911;28;19966;-69
2023/12/01 03:14:53;;;;;;;;;;;;;;;1.14;100.00;94829.00;5063483;28;20217;-69
2023/12/01 03:17:18;;;;;;;;;;;;;;;1.13;100.00;94824.03;5063166;28;20008;-70
2023/12/01 03:19:47;;;;;;;;;;;;;;;1.09;100.00;94817.69;5066008;28;19947;-70
2023/12/01 03:22:13;;;;;;;;;;;;;;;1.07;100.00;94827.41;5067213;28;20231;-70
2023/12/01 03:24:40;;;;;;;;;;;;;;;1.04;100.00;94820.06;5067510;28;19943;-70
2023/12/01 03:27:06;;;;;;;;;;;;;;;0.98;100.00;94817.28;5067061;28;19950;-64
2023/12/01 03:29:33;;;;;;;;;;;;;;;0.97;100.00;94807.19;5067248;28;19979;-74
2023/12/01 03:31:59;;;;;;;;;;;;;;;0.94;100.00;94808.34;5067313;28;19943;-75
2023/12/01 03:34:24;;;;;;;;;;;;;;;0.91;100.00;94813.91;5067011;28;20127;-74
2023/12/01 03:36:51;;;;;;;;;;;;;;;0.90;100.00;94817.47;5066667;28;19966;-74
2023/12/01 03:39:16;;;;;;;;;;;;;;;0.88;100.00;94826.41;5067661;28;19962;-74
2023/12/01 03:41:46;;;;;;;;;;;;;;;0.87;100.00;94820.47;5066947;28;20224;-74
2023/12/01 03:44:12;;;;;;;;;;;;;;;0.87;100.00;94830.00;5066755;28;19950;-74
2023/12/01 03:46:37;;;;;;;;;;;;;;;0.87;100.00;94838.53;5066942;28;19975;-67
2023/12/01 03:49:03;;;;;;;;;;;;;;;0.87;100.00;94825.63;5066975;28;20245;-65
2023/12/01 03:51:30;;;;;;;;;;;;;;;0.88;100.00;94823.81;5067528;28;19936;-65
2023/12/01 03:53:55;;;;;;;;;;;;;;;0.89;100.00;94833.16;5066939;28;19941;-66
2023/12/01 03:56:21;;;;;;;;;;;;;;;0.90;100.00;94824.44;5066819;28;20039;-65
2023/12/01 03:58:47;;;;;;;;;;;;;;;0.91;100.00;94826.81;5066899;28;20225;-66
2023/12/01 04:01:13;;;;;;;;;;;;;;;0.90;100.00;94822.63;5066800;28;20244;-66
2023/12/01 04:03:39;;;;;;;;;;;;;;;0.90;100.00;94822.63;5067342;28;19940;-67
2023/12/01 04:06:05;;;;;;;;;;;;;;;0.93;100.00;94831.78;5067539;28;19937;-67
2023/12/01 04:08:31;;;;;;;;;;;;;;;0.94;100.00;94830.78;5066701;28;19943;-66
2023/12/01 04:10:57;;;;;;;;;;;;;;;0.94;100.00;94835.94;5066258;28;19944;-66
2023/12/01 04:13:24;;;;;;;;;;;;;;;0.92;100.00;94830.19;5066533;28;20227;-66
2023/12/01 04:15:50;;;;;;;;;;;;;;;0.89;100.00;94831.38;5067288;28;20110;-66
2023/12/01 04:18:16;;;;;;;;;;;;;;;0.88;100.00;94823.81;5067241;28;19951;-66
2023/12/01 04:20:42;;;;;;;;;;;;;;;0.87;100.00;94828.19;5066478;28;19937;-66
2023/12/01 04:23:09;;;;;;;;;;;;;;;0.88;100.00;94826.41;5066451;28;19977;-71
2023/12/01 04:25:36;;;;;;;;;;;;;;;0.88;100.00;94837.53;5066382;28;19946;-80
2023/12/01 04:28:02;;;;;;;;;;;;;;;0.88;100.00;94829.00;5066292;28;20262;-79
2023/12/01 04:30:28;;;;;;;;;;;;;;;0.84;100.00;94831.19;5065236;28;19944;-77
2023/12/01 04:32:54;;;;;;;;;;;;;;;0.82;100.00;94828.00;5066157;28;19937;-78
2023/12/01 04:35:24;;;;;;;;;;;;;;;0.78;100.00;94821.66;5066361;28;19956;-78
2023/12/01 04:37:51;;;;;;;;;;;;;;;0.75;100.00;94834.94;5066967;28;19956;-78
2023/12/01 04:40:17;;;;;;;;;;;;;;;0.74;100.00;94836.72;5066388;28;19939;-71
2023/12/01 04:42:47;;;;;;;;;;;;;;;0.73;100.00;94832.53;5065381;28;19974;-66
2023/12/01 04:45:13;;;;;;;;;;;;;;;0.74;100.00;94836.72;5065954;28;19955;-76
2023/12/01 04:47:40;;;;;;;;;;;;;;;0.73;100.00;94840.28;5065848;28;19976;-76
2023/12/01 04:50:13;;;;;;;;;;;;;;;0.74;100.00;94835.94;5048997;28;19953;-75
2023/12/01 04:52:41;;;;;;;;;;;;;;;0.74;100.00;94849.63;5065868;28;19943;-75
2023/12/01 04:55:09;;;;;;;;;;;;;;;0.74;100.00;94834.16;5065833;28;19942;-75
2023/12/01 04:57:35;;;;;;;;;;;;;;;0.73;100.00;94842.84;5065802;28;20015;-75
2023/12/01 05:00:02;;;;;;;;;;;;;;;0.75;100.00;94834.94;5065799;28;19940;-78
2023/12/01 05:02:28;;;;;;;;;;;;;;;0.77;100.00;94838.09;5065735;28;19945;-68
2023/12/01 05:04:54;;;;;;;;;;;;;;;0.82;100.00;94838.34;5065659;28;20017;-68
2023/12/01 05:07:20;;;;;;;;;;;;;;;0.84;100.00;94840.69;5065601;28;19937;-68
2023/12/01 05:09:45;;;;;;;;;;;;;;;0.87;100.00;94843.69;5065555;28;19952;-67
2023/12/01 05:12:11;;;;;;;;;;;;;;;0.89;100.00;94833.16;5065533;28;20202;-68
2023/12/01 05:14:37;;;;;;;;;;;;;;;0.89;100.00;94828.81;5065457;28;19943;-68
2023/12/01 05:17:04;;;;;;;;;;;;;;;0.92;100.00;94830.19;5065383;28;19955;-65
2023/12/01 05:19:30;;;;;;;;;;;;;;;0.88;100.00;94834.16;5065428;28;19936;-65
2023/12/01 05:21:55;;;;;;;;;;;;;;;0.87;100.00;94843.69;5065338;28;19946;-68
2023/12/01 05:24:21;;;;;;;;;;;;;;;0.87;100.00;94854.00;5065782;28;19937;-68
2023/12/01 05:26:47;;;;;;;;;;;;;;;0.89;100.00;94848.66;5065830;28;19947;-68
2023/12/01 05:29:13;;;;;;;;;;;;;;;0.88;100.00;94855.59;5065204;28;20024;-69
2023/12/01 05:31:39;;;;;;;;;;;;;;;0.86;100.00;94862.75;5065941;28;19940;-68
2023/12/01 05:34:05;;;;;;;;;;;;;;;0.87;100.00;94861.75;5065891;28;19935;-68
2023/12/01 05:36:31;;;;;;;;;;;;;;;0.88;100.00;94863.31;5065544;28;20136;-68
2023/12/01 05:38:57;;;;;;;;;;;;;;;0.90;100.00;94865.72;5065058;28;19937;-64
2023/12/01 05:41:23;;;;;;;;;;;;;;;0.90;100.00;94857.97;5064843;28;19935;-65
2023/12/01 05:43:49;;;;;;;;;;;;;;;0.91;100.00;94870.69;5065675;28;19952;-65
2023/12/01 05:46:14;;;;;;;;;;;;;;;0.94;100.00;94866.91;5064710;28;19970;-65
2023/12/01 05:48:41;;;;;;;;;;;;;;;0.94;100.00;94867.69;5064803;28;20137;-64
2023/12/01 05:51:07;;;;;;;;;;;;;;;0.95;100.00;94871.09;5064787;28;20136;-65
2023/12/01 05:53:34;;;;;;;;;;;;;;;0.94;100.00;94870.28;5065249;28;19944;-69
2023/12/01 05:56:03;;;;;;;;;;;;;;;0.96;100.00;94875.25;5064648;28;20251;-78
2023/12/01 05:58:28;;;;;;;;;;;;;;;0.95;100.00;94871.88;5064895;28;20096;-74
2023/12/01 06:00:54;;;;;;;;;;;;;;;0.94;100.00;94872.06;5064647;28;19988;-74
2023/12/01 06:03:20;;;;;;;;;;;;;;;0.92;100.00;94861.16;5064545;28;19949;-75
2023/12/01 06:05:49;;;;;;;;;;;;;;;0.92;100.00;94874.06;5064792;28;20127;-75
2023/12/01 06:08:15;;;;;;;;;;;;;;;0.91;100.00;94878.44;5064529;28;20227;-75
2023/12/01 06:10:41;;;;;;;;;;;;;;;0.91;100.00;94878.44;5064418;28;19949;-74
2023/12/01 06:13:07;;;;;;;;;;;;;;;0.92;100.00;94867.09;5064391;28;19975;-69
2023/12/01 06:15:33;;;;;;;;;;;;;;;0.93;100.00;94870.50;5064293;28;19961;-65
2023/12/01 06:17:59;;;;;;;;;;;;;;;0.91;100.00;94893.91;5065125;28;19941;-65
2023/12/01 06:20:25;;;;;;;;;;;;;;;0.92;100.00;94895.50;5064239;28;19937;-65
2023/12/01 06:22:54;;;;;;;;;;;;;;;0.92;100.00;94892.91;5064254;28;19943;-64
2023/12/01 06:25:21;;;;;;;;;;;;;;;0.89;100.00;94898.47;5064164;28;19944;-66
2023/12/01 06:27:47;;;;;;;;;;;;;;;0.86;100.00;94901.47;5064177;28;19942;-65
2023/12/01 06:30:14;;;;;;;;;;;;;;;0.84;100.00;94900.03;5064148;28;19935;-77
2023/12/01 06:32:44;;;;;;;;;;;;;;;0.82;100.00;94905.41;5064911;28;19955;-65
2023/12/01 06:35:11;;;;;;;;;;;;;;;0.80;100.00;94900.44;5064004;28;19943;-64
2023/12/01 06:37:37;;;;;;;;;;;;;;;0.75;100.00;94895.06;5063953;28;19961;-65
2023/12/01 06:40:03;;;;;;;;;;;;;;;0.72;100.00;94903.19;5064012;28;19941;-65
2023/12/01 06:42:29;;;;;;;;;;;;;;;0.70;100.00;94904.38;5064489;28;19940;-65
2023/12/01 06:44:57;;;;;;;;;;;;;;;0.68;100.00;94909.72;5063843;28;19961;-65
2023/12/01 06:47:22;;;;;;;;;;;;;;;0.70;100.00;94909.53;5063701;28;19977;-65
2023/12/01 06:49:48;;;;;;;;;;;;;;;0.72;100.00;94923.06;5063844;28;19942;-65
2023/12/01 06:52:15;;;;;;;;;;;;;;;0.73;100.00;94914.31;5063982;28;19940;-76
2023/12/01 06:54:40;;;;;;;;;;;;;;;0.72;100.00;94923.06;5064101;28;19941;-76
2023/12/01 06:57:06;;;;;;;;;;;;;;;0.70;100.00;94930.97;5063739;28;20022;-73
2023/12/01 06:59:32;;;;;;;;;;;;;;;0.71;100.00;94927.41;5064472;28;19952;-74
2023/12/01 07:01:58;;;;;;;;;;;;;;;0.72;100.00;94926.41;5064483;28;19960;-75
2023/12/01 07:04:24;;;;;;;;;;;;;;;0.72;100.00;94923.06;5063645;28;20237;-75
2023/12/01 07:06:50;;;;;;;;;;;;;;;0.70;100.00;94920.66;5064377;28;19964;-65
2023/12/01 07:09:17;;;;;;;;;;;;;;;0.69;100.00;94928.59;5063612;28;19943;-65
2023/12/01 07:11:43;;;;;;;;;;;;;;;0.66;100.00;94921.25;5063577;28;20132;-69
2023/12/01 07:14:12;;;;;;;;;;;;;;;0.66;100.00;94941.88;5062809;28;20133;-69
2023/12/01 07:16:42;;;;;;;;;;;;;;;0.65;100.00;94930.78;5063290;28;19954;-68
2023/12/01 07:19:08;;;;;;;;;;;;;;;0.63;100.00;94926.78;5063814;28;19993;-68
2023/12/01 07:21:34;;;;;;;;;;;;;;;0.63;100.00;94930.16;5063454;28;20130;-69
2023/12/01 07:24:02;;;;;;;;;;;;;;;0.64;100.00;94930.97;5063614;28;20218;-68
2023/12/01 07:26:28;;;;;;;;;;;;;;;0.64;100.00;94943.84;5063516;28;19951;-68
2023/12/01 07:28:54;;;;;;;;;;;;;;;0.63;100.00;94931.94;5063476;28;19941;-65
2023/12/01 07:31:20;;;;;;;;;;;;;;;0.61;100.00;94929.56;5064234;28;19949;-65
2023/12/01 07:33:46;;;;;;;;;;;;;;;0.63;100.00;94924.19;5064168;28;19944;-65
2023/12/01 07:36:12;;;;;;;;;;;;;;;0.62;100.00;94931.13;5064143;28;20249;-65
2023/12/01 07:38:38;;;;;;;;;;;;;;;0.59;100.00;94929.75;5063931;28;19948;-65
2023/12/01 07:41:07;;;;;;;;;;;;;;;0.59;100.00;94937.50;5063926;28;19942;-65
2023/12/01 07:43:33;;;;;;;;;;;;;;;0.60;100.00;94946.81;5063933;28;20146;-68
2023/12/01 07:45:59;;;;;;;;;;;;;;;0.62;100.00;94949.19;5063627;28;20152;-69
2023/12/01 07:48:25;;;;;;;;;;;;;;;0.63;100.00;94944.81;5064098;28;19938;-68
2023/12/01 07:50:51;;;;;;;;;;;;;;;0.64;100.00;94949.81;5063282;28;19943;-69
2023/12/01 07:53:16;;;;;;;;;;;;;;;0.67;100.00;94966.66;5063231;28;20012;-69
2023/12/01 07:55:42;;;;;;;;;;;;;;;0.67;100.00;94977.00;5063403;28;19951;-69
2023/12/01 07:58:09;;;;;;;;;;;;;;;0.67;100.00;94970.03;5063145;28;19981;-69
2023/12/01 08:00:40;;;;;;;;;;;;;;;0.70;100.00;94972.25;5063104;28;20274;-69
2023/12/01 08:03:06;;;;;;;;;;;;;;;0.73;100.00;94953.00;5063755;28;19943;-75
2023/12/01 08:05:32;;;;;;;;;;;;;;;0.75;100.00;94951.81;5063647;28;19939;-76
2023/12/01 08:07:58;;;;;;;;;;;;;;;0.75;100.00;94949.25;5066341;28;19978;-76
2023/12/01 08:10:24;;;;;;;;;;;;;;;0.78;100.00;94955.81;5066788;28;19999;-76
2023/12/01 08:12:50;;;;;;;;;;;;;;;0.78;100.00;94940.34;5066649;28;20126;-76
2023/12/01 08:15:16;;;;;;;;;;;;;;;0.76;100.00;94947.47;5066674;28;19957;-76
2023/12/01 08:17:43;;;;;;;;;;;;;;;0.75;100.00;94971.66;5066581;28;20017;-73
2023/12/01 08:20:10;;;;;;;;;;;;;;;0.74;100.00;94981.19;5066608;28;20145;-75
2023/12/01 08:22:43;;;;;;;;;;;;;;;0.72;100.00;94985.75;5066551;28;19939;-75
2023/12/01 08:25:09;;;;;;;;;;;;;;;0.71;100.00;94989.31;5067392;28;19945;-68
2023/12/01 08:27:35;;;;;;;;;;;;;;;0.69;100.00;94977.59;5048742;28;19964;-69
2023/12/01 08:30:02;;;;;;;;;;;;;;;0.67;100.00;94972.63;5067212;28;19937;-69
2023/12/01 08:32:28;;;;;;;;;;;;;;;0.63;100.00;94963.72;5066704;28;19938;-68
2023/12/01 08:34:54;;;;;;;;;;;;;;;0.66;100.00;94959.94;5066301;28;20232;-69
2023/12/01 08:37:20;;;;;;;;;;;;;;;0.69;100.00;94955.16;5066211;28;19969;-69
2023/12/01 08:39:46;;;;;;;;;;;;;;;0.73;100.00;94961.53;5066298;28;19946;-68
2023/12/01 08:42:12;;;;;;;;;;;;;;;0.75;100.00;94969.88;5066188;28;19937;-68
2023/12/01 08:44:38;;;;;;;;;;;;;;;0.83;100.00;94968.13;5066271;28;19957;-68
2023/12/01 08:47:04;;;;;;;;;;;;;;;0.85;100.00;94966.16;5066108;28;19975;-67
2023/12/01 08:49:30;;;;;;;;;;;;;;;0.88;100.00;94963.19;5049078;28;19945;-68
2023/12/01 08:51:56;;;;;;;;;;;;;;;0.89;100.00;94970.72;5065952;28;19940;-67
2023/12/01 08:54:22;;;;;;;;;;;;;;;0.91;100.00;94965.38;5065970;28;19964;-68
2023/12/01 08:56:48;;;;;;;;;;;;;;;0.95;100.00;94961.44;5066329;28;19965;-67
2023/12/01 08:59:14;;;;;;;;;;;;;;;0.97;100.00;94962.81;5065862;28;19943;-66
2023/12/01 09:01:43;;;;;;;;;;;;;;;1.02;100.00;94965.59;5065835;28;19944;-65
2023/12/01 09:04:09;;;;;;;;;;;;;;;1.06;100.00;94965.22;5066004;28;19936;-65
2023/12/01 09:06:36;;;;;;;;;;;;;;;1.04;100.00;94967.22;5065701;28;20129;-65
2023/12/01 09:09:02;;;;;;;;;;;;;;;1.00;100.00;94959.84;5047970;28;20206;-65
2023/12/01 09:11:29;;;;;;;;;;;;;;;1.01;100.00;94947.75;5066058;28;19951;-65
2023/12/01 09:13:55;;;;;;;;;;;;;;;1.02;100.00;94951.91;5066130;28;19936;-65
2023/12/01 09:16:23;;;;;;;;;;;;;;;1.06;100.00;94955.69;5065811;28;19959;-70
2023/12/01 09:18:50;;;;;;;;;;;;;;;1.08;100.00;94956.28;5065510;28;19936;-70
2023/12/01 09:21:16;;;;;;;;;;;;;;;1.12;100.00;94962.66;5065434;28;19937;-68
2023/12/01 09:23:42;;;;;;;;;;;;;;;1.14;100.00;94963.25;5066454;28;19932;-68
2023/12/01 09:26:08;;;;;;;;;;;;;;;1.14;100.00;94977.97;5065919;28;20200;-68
2023/12/01 09:28:34;;;;;;;;;;;;;;;1.11;100.00;94979.13;5065271;28;20012;-68
2023/12/01 09:31:03;;;;;;;;;;;;;;;1.10;100.00;94985.28;5065209;28;19945;-68
2023/12/01 09:33:29;;;;;;;;;;;;;;;1.10;100.00;94987.09;5065450;28;20134;-68
2023/12/01 09:35:56;;;;;;;;;;;;;;;1.10;100.00;94982.72;5065604;28;19933;-64
2023/12/01 09:38:22;;;;;;;;;;;;;;;1.10;100.00;94995.63;5065030;28;19953;-75
2023/12/01 09:40:47;;;;;;;;;;;;;;;1.07;100.00;94990.03;5065091;28;20184;-74
2023/12/01 09:43:19;;;;;;;;;;;;;;;1.06;100.00;94998.78;5064964;28;19981;-75
2023/12/01 09:45:45;;;;;;;;;;;;;;;1.07;100.00;94997.78;5064799;28;19939;-75
2023/12/01 09:48:13;;;;;;;;;;;;;;;1.11;100.00;94984.28;5065767;28;20188;-75
2023/12/01 09:50:39;;;;;;;;;;;;;;;1.16;100.00;94981.16;5065602;28;20120;-74
2023/12/01 09:53:05;;;;;;;;;;;;;;;1.20;100.00;94995.25;5064783;28;19941;-65
2023/12/01 09:55:33;;;;;;;;;;;;;;;1.23;100.00;94987.09;5065295;28;19950;-69
2023/12/01 09:57:59;;;;;;;;;;;;;;;1.27;100.00;94977.19;5065207;28;19956;-68
2023/12/01 10:00:25;;;;;;;;;;;;;;;1.30;100.00;94966.47;5064920;28;19951;-69
2023/12/01 10:02:51;;;;;;;;;;;;;;;1.35;100.00;94964.09;5065428;28;19934;-68
2023/12/01 10:05:20;;;;;;;;;;;;;;;1.41;100.00;94963.31;5065088;28;19966;-70
2023/12/01 10:07:48;;;;;;;;;;;;;;;1.46;100.00;94957.56;5064515;28;20003;-68
2023/12/01 10:10:21;;;;;;;;;;;;;;;1.61;100.00;94958.94;5064544;28;19944;-69
2023/12/01 10:13:05;;;;;;;;;;;;;;;2.24;100.00;94940.38;5064522;28;19950;-69
2023/12/01 10:15:31;;;;;;;;;;;;;;;2.36;100.00;94953.50;5064961;28;19945;-78
2023/12/01 10:18:09;;;;;;;;;;;;;;;2.28;100.00;94952.94;5064293;28;19952;-78
2023/12/01 10:20:35;;;;;;;;;;;;;;;2.16;100.00;94940.63;5064293;28;19946;-79
2023/12/01 10:23:15;;;;;;;;;;;;;;;1.98;100.00;94940.44;5047235;28;19951;-79
2023/12/01 10:25:45;;;;;;;;;;;;;;;2.09;100.00;94934.66;5064511;28;19941;-77
2023/12/01 10:28:12;;;;;;;;;;;;;;;2.68;100.00;94934.69;5064264;28;19943;-78
2023/12/01 10:30:50;;;;;;;;;;;;;;;2.72;100.00;94930.69;5064227;28;19950;-77
2023/12/01 10:33:17;;;;;;;;;;;;;;;2.52;100.00;94928.16;5064161;28;19948;-65
2023/12/01 10:35:56;;;;;;;;;;;;;;;2.34;100.00;94934.00;5064590;28;19941;-65
2023/12/01 10:38:24;;;;;;;;;;;;;;;2.11;100.00;94934.47;5064494;28;19957;-65
2023/12/01 10:40:50;;;;;;;;;;;;;;;1.91;100.00;94947.41;5064282;28;20029;-65
2023/12/01 10:43:16;;;;;;;;;;;;;;;1.76;100.00;94955.38;5063916;28;19948;-65
2023/12/01 10:45:42;;;;;;;;;;;;;;;1.62;100.00;94957.16;5063778;28;19944;-65
2023/12/01 10:48:09;;;;;;;;;;;;;;;1.55;100.00;94953.78;5063955;28;19942;-76
2023/12/01 10:50:36;;;;;;;;;;;;;;;1.46;100.00;94958.34;5046146;28;20218;-69
2023/12/01 10:53:02;;;;;;;;;;;;;;;1.40;100.00;94952.16;5064389;28;19943;-70
2023/12/01 10:55:28;;;;;;;;;;;;;;;1.51;100.00;94942.25;5063824;28;19936;-70
2023/12/01 10:57:56;;;;;;;;;;;;;;;1.69;100.00;94936.50;5046583;28;20243;-70
2023/12/01 11:00:31;;;;;;;;;;;;;;;1.74;100.00;94931.50;5063767;28;19942;-70
2023/12/01 11:03:03;;;;;;;;;;;;;;;1.74;100.00;94937.50;5063997;28;19945;-71
2023/12/01 11:05:31;;;;;;;;;;;;;;;1.74;100.00;94937.50;5063695;28;19941;-70
2023/12/01 11:07:56;;;;;;;;;;;;;;;1.72;100.00;94926.56;5063726;28;19949;-76
2023/12/01 11:10:42;;;;;;;;;;;;;;;1.68;100.00;94916.81;5063740;28;19965;-76
2023/12/01 11:13:22;;;;;;;;;;;;;;;1.63;100.00;94900.09;5064189;28;19951;-76
2023/12/01 11:15:53;;;;;;;;;;;;;;;1.59;100.00;94893.75;5064226;28;19949;-77
2023/12/01 11:18:20;;;;;;;;;;;;;;;1.54;100.00;94903.91;5063738;28;19959;-76
2023/12/01 11:20:48;;;;;;;;;;;;;;;1.48;100.00;94903.91;5063562;28;19975;-76
2023/12/01 11:23:19;;;;;;;;;;;;;;;1.38;100.00;94897.31;5064091;28;19949;-76
2023/12/01 11:25:50;;;;;;;;;;;;;;;1.39;100.00;94901.53;5064093;28;19942;-65
2023/12/01 11:31:21;;;;;;;;;;;;;;;1.42;100.00;94901.09;5064293;28;19945;-78
2023/12/01 11:33:48;;;;;;;;;;;;;;;1.41;100.00;94917.63;5064061;28;19944;-78
2023/12/01 11:36:20;;;;;;;;;;;;;;;1.34;100.00;94913.41;5062685;28;20250;-78
2023/12/01 11:39:08;;;;;;;;;;;;;;;1.27;100.00;94904.88;5063992;28;20114;-78
2023/12/01 11:41:34;;;;;;;;;;;;;;;1.21;100.00;94916.78;5067168;28;19943;-77
2023/12/01 11:44:04;;;;;;;;;;;;;;;1.17;100.00;94913.81;5066751;28;20340;-77
2023/12/01 11:46:31;;;;;;;;;;;;;;;1.14;100.00;94913.41;5067192;28;20267;-76
2023/12/01 11:48:56;;;;;;;;;;;;;;;1.12;100.00;94911.03;5067119;28;19949;-75
2023/12/01 11:51:22;;;;;;;;;;;;;;;1.12;100.00;94911.03;5067065;28;19942;-74
2023/12/01 11:53:55;;;;;;;;;;;;;;;1.11;100.00;94906.84;5067042;28;20226;-75
2023/12/01 11:56:22;;;;;;;;;;;;;;;1.10;100.00;94907.06;5066943;28;19944;-75
2023/12/01 11:58:48;;;;;;;;;;;;;;;1.08;100.00;94906.47;5066903;28;19947;-76
2023/12/01 12:01:14;;;;;;;;;;;;;;;1.08;100.00;94916.78;5066882;28;20225;-76
2023/12/01 12:03:40;;;;;;;;;;;;;;;1.08;100.00;94924.53;5066887;28;19950;-64
2023/12/01 12:06:07;;;;;;;;;;;;;;;1.07;100.00;94935.81;5049757;28;19942;-76
2023/12/01 12:08:33;;;;;;;;;;;;;;;1.07;100.00;94941.00;5066996;28;19941;-77
2023/12/01 12:11:00;;;;;;;;;;;;;;;1.03;100.00;94943.19;5066734;28;20109;-76
2023/12/01 12:13:26;;;;;;;;;;;;;;;0.96;100.00;94943.16;5067193;28;19944;-77
2023/12/01 12:15:52;;;;;;;;;;;;;;;0.88;100.00;94935.59;5066882;28;20134;-77
2023/12/01 12:18:20;;;;;;;;;;;;;;;0.85;100.00;94937.78;5066538;28;20253;-76
2023/12/01 12:20:46;;;;;;;;;;;;;;;0.81;100.00;94943.31;5066586;28;20140;-70
2023/12/01 12:23:12;;;;;;;;;;;;;;;0.79;100.00;94942.69;5067358;28;19944;-65
2023/12/01 12:25:38;;;;;;;;;;;;;;;0.86;100.00;94958.22;5066989;28;19939;-65
2023/12/01 12:28:10;;;;;;;;;;;;;;;0.89;100.00;94968.16;5066479;28;20222;-65
2023/12/01 12:30:36;;;;;;;;;;;;;;;0.84;100.00;94962.78;5066348;28;19950;-65
2023/12/01 12:33:01;;;;;;;;;;;;;;;0.79;100.00;94959.97;5066387;28;19938;-65
2023/12/01 12:35:27;;;;;;;;;;;;;;;0.75;100.00;94944.06;5066489;28;19935;-66
2023/12/01 12:37:53;;;;;;;;;;;;;;;0.73;100.00;94953.00;5066143;28;19952;-65
2023/12/01 12:40:19;;;;;;;;;;;;;;;0.71;100.00;94949.81;5067073;28;19984;-68
2023/12/01 12:42:54;;;;;;;;;;;;;;;0.68;100.00;94942.47;5066186;28;19963;-65
2023/12/01 12:45:20;;;;;;;;;;;;;;;0.67;100.00;94938.28;5066080;28;19962;-66
2023/12/01 12:47:46;;;;;;;;;;;;;;;0.66;100.00;94926.41;5065930;28;19974;-65
2023/12/01 12:50:17;;;;;;;;;;;;;;;0.64;100.00;94913.69;5065975;28;19940;-65